Betty K Vii — 3EEH6 — position and weather

sailwx.info

Track history (hours):
 
Tides and Currents Weather Stations Pressure Air Temp Water Temp Dewpoint Dewpoint Depression Visibility Wind Speed Wind Dir Waves Ship Positions

Betty K Vii

Last reported at 2018-Jun-21 01:00 UTC. Time now 2018-Jun-21 00:59 UTC.
Position N 25°48' W 080°15'.

Length 86 m; draft 4.5 m.

Type: Ship. MMSI: 371900000.

Date/timePositionNaut miles runAvg speedWind from/ knotsBaromVisibWave heightAir tempDewpointWater temp
2018-Jun-21 01:00N 25°48' W 080°15'0 0.0
2018-Jun-21 00:30N 25°48' W 080°15'0 0.0
2018-Jun-21 00:00N 25°48' W 080°15'0 0.0
2018-Jun-20 23:30N 25°48' W 080°15'0 0.0
2018-Jun-20 23:00N 25°48' W 080°15'0 0.0
2018-Jun-20 22:30N 25°48' W 080°15'0 0.0
2018-Jun-20 22:00N 25°48' W 080°15'0 0.0
2018-Jun-20 21:30N 25°48' W 080°15'0 0.0
2018-Jun-20 21:00N 25°48' W 080°15'0 0.0
2018-Jun-20 20:30N 25°48' W 080°15'0 0.0
2018-Jun-20 20:00N 25°48' W 080°15'0 0.0
2018-Jun-20 19:30N 25°48' W 080°15'0 0.0
2018-Jun-20 19:00N 25°48' W 080°15'0 0.0
2018-Jun-20 18:30N 25°48' W 080°15'0 0.0
2018-Jun-20 18:00N 25°48' W 080°15'0 0.0
2018-Jun-20 17:30N 25°48' W 080°15'0 0.0
2018-Jun-20 17:00N 25°48' W 080°15'0 0.0
2018-Jun-20 16:30N 25°48' W 080°15'0 0.0
2018-Jun-20 16:00N 25°48' W 080°15'0 0.0
2018-Jun-20 15:30N 25°48' W 080°15'0 0.0
2018-Jun-20 15:00N 25°48' W 080°15'0 0.0
2018-Jun-20 14:30N 25°48' W 080°15'0 0.0
2018-Jun-20 14:00N 25°48' W 080°15'0 0.0
2018-Jun-20 13:30N 25°48' W 080°15'0 0.0
2018-Jun-20 13:00N 25°48' W 080°15'0 0.0
2018-Jun-20 12:30N 25°48' W 080°15'0 0.0
2018-Jun-20 12:00N 25°48' W 080°15'0 0.0
2018-Jun-20 11:30N 25°48' W 080°15'0 0.0
2018-Jun-20 10:59N 25°48' W 080°15'0 0.0
2018-Jun-20 10:30N 25°48' W 080°15'0 0.0
2018-Jun-20 10:00N 25°48' W 080°15'0 0.0
2018-Jun-20 09:30N 25°48' W 080°15'0 0.0
2018-Jun-20 09:00N 25°48' W 080°15'0 0.0
2018-Jun-20 08:30N 25°48' W 080°15'0 0.0
2018-Jun-20 08:00N 25°48' W 080°15'0 0.0
2018-Jun-20 07:30N 25°48' W 080°15'0 0.0
2018-Jun-20 07:00N 25°48' W 080°15'0 0.0
2018-Jun-20 06:30N 25°48' W 080°15'0 0.0
2018-Jun-20 06:00N 25°48' W 080°15'0 0.0
2018-Jun-20 05:30N 25°48' W 080°15'0 0.0
2018-Jun-20 05:00N 25°48' W 080°15'0 0.0
2018-Jun-20 04:30N 25°48' W 080°15'0 0.0
2018-Jun-20 04:00N 25°48' W 080°15'0 0.0
2018-Jun-20 03:30N 25°48' W 080°15'0 0.0
2018-Jun-20 03:00N 25°48' W 080°15'0 0.0
2018-Jun-20 02:30N 25°48' W 080°15'0 0.0
2018-Jun-20 02:00N 25°48' W 080°15'0 0.0
2018-Jun-20 01:30N 25°48' W 080°15'0 0.0
2018-Jun-20 01:00N 25°48' W 080°15'0 0.0
2018-Jun-20 00:30N 25°48' W 080°15'0 0.6
2018-Jun-20 00:00N 25°48' W 080°15'1 1.9
2018-Jun-19 23:30N 25°47' W 080°14'1 2.6
2018-Jun-19 23:00N 25°47' W 080°13'1 2.4
2018-Jun-19 22:30N 25°46' W 080°12'1 2.9
2018-Jun-19 22:00N 25°46' W 080°10'4 8.0
2018-Jun-19 21:30N 25°46' W 080°06'1 1.2
2018-Jun-19 21:00N 25°47' W 080°05'0 0.0
2018-Jun-19 20:30N 25°47' W 080°05'0 0.0
2018-Jun-19 20:00N 25°47' W 080°05'0 0.0
2018-Jun-19 19:30N 25°47' W 080°05'0 0.0
2018-Jun-19 19:00N 25°47' W 080°05'0 0.0
2018-Jun-19 18:30N 25°47' W 080°05'0 0.0
2018-Jun-19 18:00N 25°47' W 080°05'0 0.0
2018-Jun-19 17:30N 25°47' W 080°05'0 0.0
2018-Jun-19 17:00N 25°47' W 080°05'0 0.0
2018-Jun-19 16:30N 25°47' W 080°05'0 0.0
2018-Jun-19 16:00N 25°47' W 080°05'0 0.0
2018-Jun-19 15:30N 25°47' W 080°05'0 0.0
2018-Jun-19 15:00N 25°47' W 080°05'0 0.0
2018-Jun-19 14:30N 25°47' W 080°05'0 0.0
2018-Jun-19 14:00N 25°47' W 080°05'0 0.0
2018-Jun-19 13:30N 25°47' W 080°05'0 0.0
2018-Jun-19 13:00N 25°47' W 080°05'2 3.7
2018-Jun-19 12:30N 25°47' W 080°03'611.3
2018-Jun-19 12:00N 25°48' W 079°57'510.8
2018-Jun-19 11:30N 25°50' W 079°52'610.7
2018-Jun-19 10:59N 25°52' W 079°46'510.8
2018-Jun-19 10:30N 25°54' W 079°40'5 0.1
2018-Jun-17 19:07N 25°56' W 079°35'212.4
2018-Jun-17 18:58N 25°55' W 079°37'612.5
2018-Jun-17 18:30N 25°53' W 079°43'612.5
2018-Jun-17 18:00N 25°51' W 079°50'612.2
2018-Jun-17 17:30N 25°49' W 079°56'612.1
2018-Jun-17 17:00N 25°47' W 080°03'510.1
2018-Jun-17 16:30N 25°46' W 080°08'3 6.2
2018-Jun-17 16:00N 25°46' W 080°11'1 2.3
2018-Jun-17 15:30N 25°47' W 080°12'1 2.6
2018-Jun-17 15:00N 25°47' W 080°14'1 2.3
2018-Jun-17 14:30N 25°48' W 080°15'0 0.9
2018-Jun-17 14:00N 25°48' W 080°15'0 0.0
2018-Jun-17 13:30N 25°48' W 080°15'0 0.0
2018-Jun-17 13:00N 25°48' W 080°15'0 0.0
2018-Jun-17 12:30N 25°48' W 080°15'0 0.0
2018-Jun-17 12:00N 25°48' W 080°15'0 0.0
2018-Jun-17 11:30N 25°48' W 080°15'0 0.0
2018-Jun-17 11:00N 25°48' W 080°15'0 0.0
2018-Jun-17 10:30N 25°48' W 080°15'0 0.0
2018-Jun-17 10:00N 25°48' W 080°15'0 0.0
2018-Jun-17 09:30N 25°48' W 080°15'0 0.0
2018-Jun-17 09:00N 25°48' W 080°15'0 0.0
2018-Jun-17 08:30N 25°48' W 080°15'0 0.0
2018-Jun-17 08:00N 25°48' W 080°15'0 0.0
2018-Jun-17 07:30N 25°48' W 080°15'0 0.0
2018-Jun-17 07:00N 25°48' W 080°15'0 0.0
2018-Jun-17 06:30N 25°48' W 080°15'0 0.0
2018-Jun-17 06:00N 25°48' W 080°15'0 0.0
2018-Jun-17 05:30N 25°48' W 080°15'0 0.0
2018-Jun-17 05:00N 25°48' W 080°15'0 0.0
2018-Jun-17 04:30N 25°48' W 080°15'0 0.0
2018-Jun-17 04:00N 25°48' W 080°15'0 0.0
2018-Jun-17 03:30N 25°48' W 080°15'0 0.0
2018-Jun-17 02:59N 25°48' W 080°15'0 0.0
2018-Jun-17 02:30N 25°48' W 080°15'0 0.0
2018-Jun-17 02:00N 25°48' W 080°15'0 0.0
2018-Jun-17 01:30N 25°48' W 080°15'0 0.0
2018-Jun-17 01:00N 25°48' W 080°15'0 0.0
2018-Jun-17 00:30N 25°48' W 080°15'0 0.0
2018-Jun-17 00:00N 25°48' W 080°15'0 0.0
2018-Jun-16 23:30N 25°48' W 080°15'0 0.0
2018-Jun-16 23:00N 25°48' W 080°15'0 0.0
2018-Jun-16 22:30N 25°48' W 080°15'0 0.0
2018-Jun-16 22:00N 25°48' W 080°15'0 0.0
2018-Jun-16 21:30N 25°48' W 080°15'0 0.0
2018-Jun-16 21:00N 25°48' W 080°15'0 0.0
2018-Jun-16 20:30N 25°48' W 080°15'0 0.0
2018-Jun-16 20:00N 25°48' W 080°15'0 0.0
2018-Jun-16 19:30N 25°48' W 080°15'0 0.0
2018-Jun-16 19:00N 25°48' W 080°15'0 0.0
2018-Jun-16 18:30N 25°48' W 080°15'0 0.0
2018-Jun-16 18:00N 25°48' W 080°15'0 0.0
2018-Jun-16 17:30N 25°48' W 080°15'0 0.0
2018-Jun-16 17:00N 25°48' W 080°15'0 0.0
2018-Jun-16 16:30N 25°48' W 080°15'0 0.0
2018-Jun-16 16:00N 25°48' W 080°15'0 0.0
2018-Jun-16 15:30N 25°48' W 080°15'0 0.0
2018-Jun-16 15:00N 25°48' W 080°15'0 0.0
2018-Jun-16 14:30N 25°48' W 080°15'0 0.0
2018-Jun-16 14:00N 25°48' W 080°15'0 0.0
2018-Jun-16 13:30N 25°48' W 080°15'0 0.0
2018-Jun-16 13:00N 25°48' W 080°15'0 0.0
2018-Jun-16 12:30N 25°48' W 080°15'0 0.0
2018-Jun-16 12:00N 25°48' W 080°15'0 0.0
2018-Jun-16 11:30N 25°48' W 080°15'0 0.0
2018-Jun-16 11:00N 25°48' W 080°15'0 0.0
2018-Jun-16 10:30N 25°48' W 080°15'0 0.0
2018-Jun-16 10:00N 25°48' W 080°15'0 0.0
2018-Jun-16 09:30N 25°48' W 080°15'0 0.0
2018-Jun-16 09:00N 25°48' W 080°15'0 0.0
2018-Jun-16 08:30N 25°48' W 080°15'0 0.0
2018-Jun-16 08:00N 25°48' W 080°15'0 0.0
2018-Jun-16 07:30N 25°48' W 080°15'0 0.0
2018-Jun-16 07:00N 25°48' W 080°15'0 0.0
2018-Jun-16 06:30N 25°48' W 080°15'0 0.0
2018-Jun-16 06:00N 25°48' W 080°15'0 0.0
2018-Jun-16 05:30N 25°48' W 080°15'0 0.0
2018-Jun-16 05:00N 25°48' W 080°15'0 0.0
2018-Jun-16 04:30N 25°48' W 080°15'0 0.0
2018-Jun-16 04:00N 25°48' W 080°15'0 0.0
2018-Jun-16 03:30N 25°48' W 080°15'0 0.0
2018-Jun-16 03:00N 25°48' W 080°15'0 0.0
2018-Jun-16 02:30N 25°48' W 080°15'0 0.0
2018-Jun-16 02:00N 25°48' W 080°15'0 0.0
2018-Jun-16 01:30N 25°48' W 080°15'0 0.0
2018-Jun-16 01:00N 25°48' W 080°15'0 0.0
2018-Jun-16 00:30N 25°48' W 080°15'0 0.0
2018-Jun-16 00:00N 25°48' W 080°15'0 0.0
2018-Jun-15 23:30N 25°48' W 080°15'0 0.0
2018-Jun-15 23:00N 25°48' W 080°15'0 0.0
2018-Jun-15 22:30N 25°48' W 080°15'0 0.0
2018-Jun-15 22:00N 25°48' W 080°15'0 0.0
2018-Jun-15 21:30N 25°48' W 080°15'0 0.0
2018-Jun-15 21:00N 25°48' W 080°15'0 0.0
2018-Jun-15 20:30N 25°48' W 080°15'0 0.3
2018-Jun-15 20:00N 25°48' W 080°15'0 0.0
2018-Jun-15 19:30N 25°48' W 080°15'0 0.0
2018-Jun-15 19:00N 25°48' W 080°15'0 0.0
2018-Jun-15 18:30N 25°48' W 080°15'0 0.0
2018-Jun-15 17:59N 25°48' W 080°15'0 0.0
2018-Jun-15 17:30N 25°48' W 080°15'0 0.0
2018-Jun-15 17:00N 25°48' W 080°15'0 0.0
2018-Jun-15 16:30N 25°48' W 080°15'0 0.0
2018-Jun-15 16:00N 25°48' W 080°15'0 0.0
2018-Jun-15 15:30N 25°48' W 080°15'0 0.0
2018-Jun-15 15:00N 25°48' W 080°15'0 0.0
2018-Jun-15 14:30N 25°48' W 080°15'0 0.0
2018-Jun-15 14:00N 25°48' W 080°15'0 0.0
2018-Jun-15 13:30N 25°48' W 080°15'0 0.0
2018-Jun-15 13:00N 25°48' W 080°15'0 0.0
2018-Jun-15 12:30N 25°48' W 080°15'0 0.0
2018-Jun-15 12:00N 25°48' W 080°15'0 0.0
2018-Jun-15 11:30N 25°48' W 080°15'0 0.0
2018-Jun-15 11:00N 25°48' W 080°15'0 0.0
2018-Jun-15 10:30N 25°48' W 080°15'0 0.0
2018-Jun-15 10:00N 25°48' W 080°15'0 0.0
2018-Jun-15 09:30N 25°48' W 080°15'0 0.0
2018-Jun-15 09:00N 25°48' W 080°15'0 0.0
2018-Jun-15 08:30N 25°48' W 080°15'0 0.0
2018-Jun-15 08:00N 25°48' W 080°15'0 0.0
2018-Jun-15 07:30N 25°48' W 080°15'0 0.0
2018-Jun-15 07:00N 25°48' W 080°15'0 0.0
2018-Jun-15 06:30N 25°48' W 080°15'0 0.0
2018-Jun-15 06:00N 25°48' W 080°15'0 0.0
2018-Jun-15 05:30N 25°48' W 080°15'0 0.0
2018-Jun-15 05:00N 25°48' W 080°15'0 0.0
2018-Jun-15 04:30N 25°48' W 080°15'0 0.0
2018-Jun-15 04:00N 25°48' W 080°15'0 0.0
2018-Jun-15 03:30N 25°48' W 080°15'0 0.0
2018-Jun-15 03:00N 25°48' W 080°15'0 0.0
2018-Jun-15 02:30N 25°48' W 080°15'0 0.0
2018-Jun-15 02:00N 25°48' W 080°15'0 0.0
2018-Jun-15 01:30N 25°48' W 080°15'0 0.0
2018-Jun-15 01:00N 25°48' W 080°15'0 0.0
2018-Jun-15 00:30N 25°48' W 080°15'0 0.0
2018-Jun-15 00:00N 25°48' W 080°15'0 0.0
2018-Jun-14 23:30N 25°48' W 080°15'0 0.0
2018-Jun-14 23:00N 25°48' W 080°15'0 0.0
2018-Jun-14 22:30N 25°48' W 080°15'0 0.0
2018-Jun-14 22:00N 25°48' W 080°15'0 0.0
2018-Jun-14 21:30N 25°48' W 080°15'0 0.0
2018-Jun-14 21:00N 25°48' W 080°15'0 0.0
2018-Jun-14 20:30N 25°48' W 080°15'0 0.0
2018-Jun-14 20:00N 25°48' W 080°15'0 0.0
2018-Jun-14 19:30N 25°48' W 080°15'0 0.0
2018-Jun-14 19:00N 25°48' W 080°15'0 0.0
2018-Jun-14 18:30N 25°48' W 080°15'0 0.0
2018-Jun-14 18:00N 25°48' W 080°15'0 0.0
2018-Jun-14 17:30N 25°48' W 080°15'0 0.0
2018-Jun-14 17:00N 25°48' W 080°15'0 0.0
2018-Jun-14 16:30N 25°48' W 080°15'0 0.0
2018-Jun-14 16:00N 25°48' W 080°15'0 0.0
2018-Jun-14 15:30N 25°48' W 080°15'0 0.0
2018-Jun-14 15:00N 25°48' W 080°15'0 0.0
2018-Jun-14 14:30N 25°48' W 080°15'0 0.0
2018-Jun-14 14:00N 25°48' W 080°15'0 0.0
2018-Jun-14 13:30N 25°48' W 080°15'0 0.0
2018-Jun-14 13:00N 25°48' W 080°15'0 0.0
2018-Jun-14 12:30N 25°48' W 080°15'0 0.0
2018-Jun-14 12:00N 25°48' W 080°15'0 0.0
2018-Jun-14 11:30N 25°48' W 080°15'0 0.0
2018-Jun-14 11:00N 25°48' W 080°15'0 0.0
2018-Jun-14 10:30N 25°48' W 080°15'0 0.0
2018-Jun-14 10:00N 25°48' W 080°15'0 0.0
2018-Jun-14 09:29N 25°48' W 080°15'0 0.0
2018-Jun-14 09:00N 25°48' W 080°15'0 0.0
2018-Jun-14 08:30N 25°48' W 080°15'0 0.0
2018-Jun-14 08:00N 25°48' W 080°15'0 0.0
2018-Jun-14 07:30N 25°48' W 080°15'0 0.0
2018-Jun-14 07:00N 25°48' W 080°15'0 0.0
2018-Jun-14 06:30N 25°48' W 080°15'0 0.0
2018-Jun-14 06:00N 25°48' W 080°15'0 0.0
2018-Jun-14 05:30N 25°48' W 080°15'0 0.0
2018-Jun-14 05:00N 25°48' W 080°15'0 0.0
2018-Jun-14 04:30N 25°48' W 080°15'0 0.0
2018-Jun-14 04:00N 25°48' W 080°15'0 0.0
2018-Jun-14 03:30N 25°48' W 080°15'0 0.0
2018-Jun-14 03:00N 25°48' W 080°15'0 0.0
2018-Jun-14 02:30N 25°48' W 080°15'0 0.0
2018-Jun-14 02:00N 25°48' W 080°15'0 0.0
2018-Jun-14 01:30N 25°48' W 080°15'0 0.0
2018-Jun-14 01:00N 25°48' W 080°15'0 0.0
2018-Jun-14 00:30N 25°48' W 080°15'0 0.0
2018-Jun-14 00:00N 25°48' W 080°15'0 0.0
2018-Jun-13 23:30N 25°48' W 080°15'1 1.5
2018-Jun-13 23:00N 25°48' W 080°15'1 2.7
2018-Jun-13 22:31N 25°47' W 080°13'2 3.1
2018-Jun-13 22:01N 25°46' W 080°12'2 3.2
2018-Jun-13 21:30N 25°46' W 080°10'4 8.6
2018-Jun-13 21:00N 25°47' W 080°06'611.3
2018-Jun-13 20:30N 25°52' W 080°03'611.1
2018-Jun-13 20:00N 25°57' W 079°59'510.4
2018-Jun-13 19:30N 25°59' W 079°54'1 2.3
2018-Jun-13 18:58N 25°59' W 079°53'2 3.7
2018-Jun-13 18:30N 25°57' W 079°53'2 3.6
2018-Jun-13 18:00N 25°55' W 079°53'2 3.7
2018-Jun-13 17:30N 25°54' W 079°52'2 3.5
2018-Jun-13 17:00N 25°52' W 079°52'2 3.4
2018-Jun-13 16:30N 25°50' W 079°52'2 3.2
2018-Jun-13 16:00N 25°49' W 079°52'2 3.3
2018-Jun-13 15:30N 25°47' W 079°52'1 1.6
2018-Jun-13 15:00N 25°46' W 079°52'1 1.8
2018-Jun-13 14:30N 25°47' W 079°51'0 0.3
2018-Jun-13 14:00N 25°47' W 079°51'0 0.9
2018-Jun-13 13:30N 25°47' W 079°51'1 1.6
2018-Jun-13 13:00N 25°46' W 079°51'1 2.2
2018-Jun-13 12:30N 25°45' W 079°51'4 7.5
2018-Jun-13 12:00N 25°49' W 079°51'2 3.3
2018-Jun-13 11:30N 25°50' W 079°50'2 3.7
2018-Jun-13 10:59N 25°48' W 079°51'2 3.7
2018-Jun-13 10:29N 25°46' W 079°51'2 3.8
2018-Jun-13 10:00N 25°45' W 079°51'3 6.2
2018-Jun-13 09:30N 25°48' W 079°51'4 7.9
2018-Jun-13 09:00N 25°52' W 079°51'1 1.4
2018-Jun-13 08:30N 25°52' W 079°51'2 3.5
2018-Jun-13 08:00N 25°50' W 079°52'2 3.4
2018-Jun-13 07:30N 25°49' W 079°52'2 3.5
2018-Jun-13 07:00N 25°47' W 079°52'3 6.4
2018-Jun-13 06:30N 25°44' W 079°51'815.5
2018-Jun-13 05:59N 25°36' W 079°49'  
Track history (hours):
 
Tides and Currents Weather Stations Pressure Air Temp Water Temp Dewpoint Dewpoint Depression Visibility Wind Speed Wind Dir Waves Ship Positions

Betty K Vii

Last reported at 2018-Jun-21 01:00 UTC. Time now 2018-Jun-21 00:59 UTC.
Position N 25°48' W 080°15'.

Length 86 m; draft 4.5 m.

Type: Ship. MMSI: 371900000.

Date/timePositionNaut miles runAvg speedWind from/ knotsBaromVisibWave heightAir tempDewpointWater temp
2018-Jun-21 01:00N 25°48' W 080°15'0 0.0
2018-Jun-21 00:30N 25°48' W 080°15'0 0.0
2018-Jun-21 00:00N 25°48' W 080°15'0 0.0
2018-Jun-20 23:30N 25°48' W 080°15'0 0.0
2018-Jun-20 23:00N 25°48' W 080°15'0 0.0
2018-Jun-20 22:30N 25°48' W 080°15'0 0.0
2018-Jun-20 22:00N 25°48' W 080°15'0 0.0
2018-Jun-20 21:30N 25°48' W 080°15'0 0.0
2018-Jun-20 21:00N 25°48' W 080°15'0 0.0
2018-Jun-20 20:30N 25°48' W 080°15'0 0.0
2018-Jun-20 20:00N 25°48' W 080°15'0 0.0
2018-Jun-20 19:30N 25°48' W 080°15'0 0.0
2018-Jun-20 19:00N 25°48' W 080°15'0 0.0
2018-Jun-20 18:30N 25°48' W 080°15'0 0.0
2018-Jun-20 18:00N 25°48' W 080°15'0 0.0
2018-Jun-20 17:30N 25°48' W 080°15'0 0.0
2018-Jun-20 17:00N 25°48' W 080°15'0 0.0
2018-Jun-20 16:30N 25°48' W 080°15'0 0.0
2018-Jun-20 16:00N 25°48' W 080°15'0 0.0
2018-Jun-20 15:30N 25°48' W 080°15'0 0.0
2018-Jun-20 15:00N 25°48' W 080°15'0 0.0
2018-Jun-20 14:30N 25°48' W 080°15'0 0.0
2018-Jun-20 14:00N 25°48' W 080°15'0 0.0
2018-Jun-20 13:30N 25°48' W 080°15'0 0.0
2018-Jun-20 13:00N 25°48' W 080°15'0 0.0
2018-Jun-20 12:30N 25°48' W 080°15'0 0.0
2018-Jun-20 12:00N 25°48' W 080°15'0 0.0
2018-Jun-20 11:30N 25°48' W 080°15'0 0.0
2018-Jun-20 10:59N 25°48' W 080°15'0 0.0
2018-Jun-20 10:30N 25°48' W 080°15'0 0.0
2018-Jun-20 10:00N 25°48' W 080°15'0 0.0
2018-Jun-20 09:30N 25°48' W 080°15'0 0.0
2018-Jun-20 09:00N 25°48' W 080°15'0 0.0
2018-Jun-20 08:30N 25°48' W 080°15'0 0.0
2018-Jun-20 08:00N 25°48' W 080°15'0 0.0
2018-Jun-20 07:30N 25°48' W 080°15'0 0.0
2018-Jun-20 07:00N 25°48' W 080°15'0 0.0
2018-Jun-20 06:30N 25°48' W 080°15'0 0.0
2018-Jun-20 06:00N 25°48' W 080°15'0 0.0
2018-Jun-20 05:30N 25°48' W 080°15'0 0.0
2018-Jun-20 05:00N 25°48' W 080°15'0 0.0
2018-Jun-20 04:30N 25°48' W 080°15'0 0.0
2018-Jun-20 04:00N 25°48' W 080°15'0 0.0
2018-Jun-20 03:30N 25°48' W 080°15'0 0.0
2018-Jun-20 03:00N 25°48' W 080°15'0 0.0
2018-Jun-20 02:30N 25°48' W 080°15'0 0.0
2018-Jun-20 02:00N 25°48' W 080°15'0 0.0
2018-Jun-20 01:30N 25°48' W 080°15'0 0.0
2018-Jun-20 01:00N 25°48' W 080°15'0 0.0
2018-Jun-20 00:30N 25°48' W 080°15'0 0.6
2018-Jun-20 00:00N 25°48' W 080°15'1 1.9
2018-Jun-19 23:30N 25°47' W 080°14'1 2.6
2018-Jun-19 23:00N 25°47' W 080°13'1 2.4
2018-Jun-19 22:30N 25°46' W 080°12'1 2.9
2018-Jun-19 22:00N 25°46' W 080°10'4 8.0
2018-Jun-19 21:30N 25°46' W 080°06'1 1.2
2018-Jun-19 21:00N 25°47' W 080°05'0 0.0
2018-Jun-19 20:30N 25°47' W 080°05'0 0.0
2018-Jun-19 20:00N 25°47' W 080°05'0 0.0
2018-Jun-19 19:30N 25°47' W 080°05'0 0.0
2018-Jun-19 19:00N 25°47' W 080°05'0 0.0
2018-Jun-19 18:30N 25°47' W 080°05'0 0.0
2018-Jun-19 18:00N 25°47' W 080°05'0 0.0
2018-Jun-19 17:30N 25°47' W 080°05'0 0.0
2018-Jun-19 17:00N 25°47' W 080°05'0 0.0
2018-Jun-19 16:30N 25°47' W 080°05'0 0.0
2018-Jun-19 16:00N 25°47' W 080°05'0 0.0
2018-Jun-19 15:30N 25°47' W 080°05'0 0.0
2018-Jun-19 15:00N 25°47' W 080°05'0 0.0
2018-Jun-19 14:30N 25°47' W 080°05'0 0.0
2018-Jun-19 14:00N 25°47' W 080°05'0 0.0
2018-Jun-19 13:30N 25°47' W 080°05'0 0.0
2018-Jun-19 13:00N 25°47' W 080°05'2 3.7
2018-Jun-19 12:30N 25°47' W 080°03'611.3
2018-Jun-19 12:00N 25°48' W 079°57'510.8
2018-Jun-19 11:30N 25°50' W 079°52'610.7
2018-Jun-19 10:59N 25°52' W 079°46'510.8
2018-Jun-19 10:30N 25°54' W 079°40'5 0.1
2018-Jun-17 19:07N 25°56' W 079°35'212.4
2018-Jun-17 18:58N 25°55' W 079°37'612.5
2018-Jun-17 18:30N 25°53' W 079°43'612.5
2018-Jun-17 18:00N 25°51' W 079°50'612.2
2018-Jun-17 17:30N 25°49' W 079°56'612.1
2018-Jun-17 17:00N 25°47' W 080°03'510.1
2018-Jun-17 16:30N 25°46' W 080°08'3 6.2
2018-Jun-17 16:00N 25°46' W 080°11'1 2.3
2018-Jun-17 15:30N 25°47' W 080°12'1 2.6
2018-Jun-17 15:00N 25°47' W 080°14'1 2.3
2018-Jun-17 14:30N 25°48' W 080°15'0 0.9
2018-Jun-17 14:00N 25°48' W 080°15'0 0.0
2018-Jun-17 13:30N 25°48' W 080°15'0 0.0
2018-Jun-17 13:00N 25°48' W 080°15'0 0.0
2018-Jun-17 12:30N 25°48' W 080°15'0 0.0
2018-Jun-17 12:00N 25°48' W 080°15'0 0.0
2018-Jun-17 11:30N 25°48' W 080°15'0 0.0
2018-Jun-17 11:00N 25°48' W 080°15'0 0.0
2018-Jun-17 10:30N 25°48' W 080°15'0 0.0
2018-Jun-17 10:00N 25°48' W 080°15'0 0.0
2018-Jun-17 09:30N 25°48' W 080°15'0 0.0
2018-Jun-17 09:00N 25°48' W 080°15'0 0.0
2018-Jun-17 08:30N 25°48' W 080°15'0 0.0
2018-Jun-17 08:00N 25°48' W 080°15'0 0.0
2018-Jun-17 07:30N 25°48' W 080°15'0 0.0
2018-Jun-17 07:00N 25°48' W 080°15'0 0.0
2018-Jun-17 06:30N 25°48' W 080°15'0 0.0
2018-Jun-17 06:00N 25°48' W 080°15'0 0.0
2018-Jun-17 05:30N 25°48' W 080°15'0 0.0
2018-Jun-17 05:00N 25°48' W 080°15'0 0.0
2018-Jun-17 04:30N 25°48' W 080°15'0 0.0
2018-Jun-17 04:00N 25°48' W 080°15'0 0.0
2018-Jun-17 03:30N 25°48' W 080°15'0 0.0
2018-Jun-17 02:59N 25°48' W 080°15'0 0.0
2018-Jun-17 02:30N 25°48' W 080°15'0 0.0
2018-Jun-17 02:00N 25°48' W 080°15'0 0.0
2018-Jun-17 01:30N 25°48' W 080°15'0 0.0
2018-Jun-17 01:00N 25°48' W 080°15'0 0.0
2018-Jun-17 00:30N 25°48' W 080°15'0 0.0
2018-Jun-17 00:00N 25°48' W 080°15'0 0.0
2018-Jun-16 23:30N 25°48' W 080°15'0 0.0
2018-Jun-16 23:00N 25°48' W 080°15'0 0.0
2018-Jun-16 22:30N 25°48' W 080°15'0 0.0
2018-Jun-16 22:00N 25°48' W 080°15'0 0.0
2018-Jun-16 21:30N 25°48' W 080°15'0 0.0
2018-Jun-16 21:00N 25°48' W 080°15'0 0.0
2018-Jun-16 20:30N 25°48' W 080°15'0 0.0
2018-Jun-16 20:00N 25°48' W 080°15'0 0.0
2018-Jun-16 19:30N 25°48' W 080°15'0 0.0
2018-Jun-16 19:00N 25°48' W 080°15'0 0.0
2018-Jun-16 18:30N 25°48' W 080°15'0 0.0
2018-Jun-16 18:00N 25°48' W 080°15'0 0.0
2018-Jun-16 17:30N 25°48' W 080°15'0 0.0
2018-Jun-16 17:00N 25°48' W 080°15'0 0.0
2018-Jun-16 16:30N 25°48' W 080°15'0 0.0
2018-Jun-16 16:00N 25°48' W 080°15'0 0.0
2018-Jun-16 15:30N 25°48' W 080°15'0 0.0
2018-Jun-16 15:00N 25°48' W 080°15'0 0.0
2018-Jun-16 14:30N 25°48' W 080°15'0 0.0
2018-Jun-16 14:00N 25°48' W 080°15'0 0.0
2018-Jun-16 13:30N 25°48' W 080°15'0 0.0
2018-Jun-16 13:00N 25°48' W 080°15'0 0.0
2018-Jun-16 12:30N 25°48' W 080°15'0 0.0
2018-Jun-16 12:00N 25°48' W 080°15'0 0.0
2018-Jun-16 11:30N 25°48' W 080°15'0 0.0
2018-Jun-16 11:00N 25°48' W 080°15'0 0.0
2018-Jun-16 10:30N 25°48' W 080°15'0 0.0
2018-Jun-16 10:00N 25°48' W 080°15'0 0.0
2018-Jun-16 09:30N 25°48' W 080°15'0 0.0
2018-Jun-16 09:00N 25°48' W 080°15'0 0.0
2018-Jun-16 08:30N 25°48' W 080°15'0 0.0
2018-Jun-16 08:00N 25°48' W 080°15'0 0.0
2018-Jun-16 07:30N 25°48' W 080°15'0 0.0
2018-Jun-16 07:00N 25°48' W 080°15'0 0.0
2018-Jun-16 06:30N 25°48' W 080°15'0 0.0
2018-Jun-16 06:00N 25°48' W 080°15'0 0.0
2018-Jun-16 05:30N 25°48' W 080°15'0 0.0
2018-Jun-16 05:00N 25°48' W 080°15'0 0.0
2018-Jun-16 04:30N 25°48' W 080°15'0 0.0
2018-Jun-16 04:00N 25°48' W 080°15'0 0.0
2018-Jun-16 03:30N 25°48' W 080°15'0 0.0
2018-Jun-16 03:00N 25°48' W 080°15'0 0.0
2018-Jun-16 02:30N 25°48' W 080°15'0 0.0
2018-Jun-16 02:00N 25°48' W 080°15'0 0.0
2018-Jun-16 01:30N 25°48' W 080°15'0 0.0
2018-Jun-16 01:00N 25°48' W 080°15'0 0.0
2018-Jun-16 00:30N 25°48' W 080°15'0 0.0
2018-Jun-16 00:00N 25°48' W 080°15'0 0.0
2018-Jun-15 23:30N 25°48' W 080°15'0 0.0
2018-Jun-15 23:00N 25°48' W 080°15'0 0.0
2018-Jun-15 22:30N 25°48' W 080°15'0 0.0
2018-Jun-15 22:00N 25°48' W 080°15'0 0.0
2018-Jun-15 21:30N 25°48' W 080°15'0 0.0
2018-Jun-15 21:00N 25°48' W 080°15'0 0.0
2018-Jun-15 20:30N 25°48' W 080°15'0 0.3
2018-Jun-15 20:00N 25°48' W 080°15'0 0.0
2018-Jun-15 19:30N 25°48' W 080°15'0 0.0
2018-Jun-15 19:00N 25°48' W 080°15'0 0.0
2018-Jun-15 18:30N 25°48' W 080°15'0 0.0
2018-Jun-15 17:59N 25°48' W 080°15'0 0.0
2018-Jun-15 17:30N 25°48' W 080°15'0 0.0
2018-Jun-15 17:00N 25°48' W 080°15'0 0.0
2018-Jun-15 16:30N 25°48' W 080°15'0 0.0
2018-Jun-15 16:00N 25°48' W 080°15'0 0.0
2018-Jun-15 15:30N 25°48' W 080°15'0 0.0
2018-Jun-15 15:00N 25°48' W 080°15'0 0.0
2018-Jun-15 14:30N 25°48' W 080°15'0 0.0
2018-Jun-15 14:00N 25°48' W 080°15'0 0.0
2018-Jun-15 13:30N 25°48' W 080°15'0 0.0
2018-Jun-15 13:00N 25°48' W 080°15'0 0.0
2018-Jun-15 12:30N 25°48' W 080°15'0 0.0
2018-Jun-15 12:00N 25°48' W 080°15'0 0.0
2018-Jun-15 11:30N 25°48' W 080°15'0 0.0
2018-Jun-15 11:00N 25°48' W 080°15'0 0.0
2018-Jun-15 10:30N 25°48' W 080°15'0 0.0
2018-Jun-15 10:00N 25°48' W 080°15'0 0.0
2018-Jun-15 09:30N 25°48' W 080°15'0 0.0
2018-Jun-15 09:00N 25°48' W 080°15'0 0.0
2018-Jun-15 08:30N 25°48' W 080°15'0 0.0
2018-Jun-15 08:00N 25°48' W 080°15'0 0.0
2018-Jun-15 07:30N 25°48' W 080°15'0 0.0
2018-Jun-15 07:00N 25°48' W 080°15'0 0.0
2018-Jun-15 06:30N 25°48' W 080°15'0 0.0
2018-Jun-15 06:00N 25°48' W 080°15'0 0.0
2018-Jun-15 05:30N 25°48' W 080°15'0 0.0
2018-Jun-15 05:00N 25°48' W 080°15'0 0.0
2018-Jun-15 04:30N 25°48' W 080°15'0 0.0
2018-Jun-15 04:00N 25°48' W 080°15'0 0.0
2018-Jun-15 03:30N 25°48' W 080°15'0 0.0
2018-Jun-15 03:00N 25°48' W 080°15'0 0.0
2018-Jun-15 02:30N 25°48' W 080°15'0 0.0
2018-Jun-15 02:00N 25°48' W 080°15'0 0.0
2018-Jun-15 01:30N 25°48' W 080°15'0 0.0
2018-Jun-15 01:00N 25°48' W 080°15'0 0.0
2018-Jun-15 00:30N 25°48' W 080°15'0 0.0
2018-Jun-15 00:00N 25°48' W 080°15'0 0.0
2018-Jun-14 23:30N 25°48' W 080°15'0 0.0
2018-Jun-14 23:00N 25°48' W 080°15'0 0.0
2018-Jun-14 22:30N 25°48' W 080°15'0 0.0
2018-Jun-14 22:00N 25°48' W 080°15'0 0.0
2018-Jun-14 21:30N 25°48' W 080°15'0 0.0
2018-Jun-14 21:00N 25°48' W 080°15'0 0.0
2018-Jun-14 20:30N 25°48' W 080°15'0 0.0
2018-Jun-14 20:00N 25°48' W 080°15'0 0.0
2018-Jun-14 19:30N 25°48' W 080°15'0 0.0
2018-Jun-14 19:00N 25°48' W 080°15'0 0.0
2018-Jun-14 18:30N 25°48' W 080°15'0 0.0
2018-Jun-14 18:00N 25°48' W 080°15'0 0.0
2018-Jun-14 17:30N 25°48' W 080°15'0 0.0
2018-Jun-14 17:00N 25°48' W 080°15'0 0.0
2018-Jun-14 16:30N 25°48' W 080°15'0 0.0
2018-Jun-14 16:00N 25°48' W 080°15'0 0.0
2018-Jun-14 15:30N 25°48' W 080°15'0 0.0
2018-Jun-14 15:00N 25°48' W 080°15'0 0.0
2018-Jun-14 14:30N 25°48' W 080°15'0 0.0
2018-Jun-14 14:00N 25°48' W 080°15'0 0.0
2018-Jun-14 13:30N 25°48' W 080°15'0 0.0
2018-Jun-14 13:00N 25°48' W 080°15'0 0.0
2018-Jun-14 12:30N 25°48' W 080°15'0 0.0
2018-Jun-14 12:00N 25°48' W 080°15'0 0.0
2018-Jun-14 11:30N 25°48' W 080°15'0 0.0
2018-Jun-14 11:00N 25°48' W 080°15'0 0.0
2018-Jun-14 10:30N 25°48' W 080°15'0 0.0
2018-Jun-14 10:00N 25°48' W 080°15'0 0.0
2018-Jun-14 09:29N 25°48' W 080°15'0 0.0
2018-Jun-14 09:00N 25°48' W 080°15'0 0.0
2018-Jun-14 08:30N 25°48' W 080°15'0 0.0
2018-Jun-14 08:00N 25°48' W 080°15'0 0.0
2018-Jun-14 07:30N 25°48' W 080°15'0 0.0
2018-Jun-14 07:00N 25°48' W 080°15'0 0.0
2018-Jun-14 06:30N 25°48' W 080°15'0 0.0
2018-Jun-14 06:00N 25°48' W 080°15'0 0.0
2018-Jun-14 05:30N 25°48' W 080°15'0 0.0
2018-Jun-14 05:00N 25°48' W 080°15'0 0.0
2018-Jun-14 04:30N 25°48' W 080°15'0 0.0
2018-Jun-14 04:00N 25°48' W 080°15'0 0.0
2018-Jun-14 03:30N 25°48' W 080°15'0 0.0
2018-Jun-14 03:00N 25°48' W 080°15'0 0.0
2018-Jun-14 02:30N 25°48' W 080°15'0 0.0
2018-Jun-14 02:00N 25°48' W 080°15'0 0.0
2018-Jun-14 01:30N 25°48' W 080°15'0 0.0
2018-Jun-14 01:00N 25°48' W 080°15'0 0.0
2018-Jun-14 00:30N 25°48' W 080°15'0 0.0
2018-Jun-14 00:00N 25°48' W 080°15'0 0.0
2018-Jun-13 23:30N 25°48' W 080°15'1 1.5
2018-Jun-13 23:00N 25°48' W 080°15'1 2.7
2018-Jun-13 22:31N 25°47' W 080°13'2 3.1
2018-Jun-13 22:01N 25°46' W 080°12'2 3.2
2018-Jun-13 21:30N 25°46' W 080°10'4 8.6
2018-Jun-13 21:00N 25°47' W 080°06'611.3
2018-Jun-13 20:30N 25°52' W 080°03'611.1
2018-Jun-13 20:00N 25°57' W 079°59'510.4
2018-Jun-13 19:30N 25°59' W 079°54'1 2.3
2018-Jun-13 18:58N 25°59' W 079°53'2 3.7
2018-Jun-13 18:30N 25°57' W 079°53'2 3.6
2018-Jun-13 18:00N 25°55' W 079°53'2 3.7
2018-Jun-13 17:30N 25°54' W 079°52'2 3.5
2018-Jun-13 17:00N 25°52' W 079°52'2 3.4
2018-Jun-13 16:30N 25°50' W 079°52'2 3.2
2018-Jun-13 16:00N 25°49' W 079°52'2 3.3
2018-Jun-13 15:30N 25°47' W 079°52'1 1.6
2018-Jun-13 15:00N 25°46' W 079°52'1 1.8
2018-Jun-13 14:30N 25°47' W 079°51'0 0.3
2018-Jun-13 14:00N 25°47' W 079°51'0 0.9
2018-Jun-13 13:30N 25°47' W 079°51'1 1.6
2018-Jun-13 13:00N 25°46' W 079°51'1 2.2
2018-Jun-13 12:30N 25°45' W 079°51'4 7.5
2018-Jun-13 12:00N 25°49' W 079°51'2 3.3
2018-Jun-13 11:30N 25°50' W 079°50'2 3.7
2018-Jun-13 10:59N 25°48' W 079°51'2 3.7
2018-Jun-13 10:29N 25°46' W 079°51'2 3.8
2018-Jun-13 10:00N 25°45' W 079°51'3 6.2
2018-Jun-13 09:30N 25°48' W 079°51'4 7.9
2018-Jun-13 09:00N 25°52' W 079°51'1 1.4
2018-Jun-13 08:30N 25°52' W 079°51'2 3.5
2018-Jun-13 08:00N 25°50' W 079°52'2 3.4
2018-Jun-13 07:30N 25°49' W 079°52'2 3.5
2018-Jun-13 07:00N 25°47' W 079°52'3 6.4
2018-Jun-13 06:30N 25°44' W 079°51'815.5
2018-Jun-13 05:59N 25°36' W 079°49'  

Dump ship's entire track history